createdAt,value
2023-11-15T00:02:35.542Z,2.50
2023-11-15T00:07:40.800Z,2.00
2023-11-15T00:12:45.830Z,2.40
2023-11-15T00:17:49.444Z,2.42
2023-11-15T00:22:54.295Z,2.33
2023-11-15T00:27:57.788Z,2.28
2023-11-15T00:33:01.441Z,2.05
2023-11-15T00:38:06.383Z,2.00
2023-11-15T00:43:09.897Z,1.98
2023-11-15T00:48:13.746Z,2.20
2023-11-15T00:53:18.902Z,2.10
2023-11-15T00:58:23.332Z,1.90
2023-11-15T01:03:28.277Z,2.00
2023-11-15T01:08:33.223Z,1.90
2023-11-15T01:13:37.869Z,1.88
2023-11-15T01:18:43.812Z,2.00
2023-11-15T01:23:49.024Z,1.92
2023-11-15T01:28:52.645Z,1.70
2023-11-15T01:33:56.098Z,1.70
2023-11-15T01:39:00.984Z,1.60
2023-11-15T01:44:04.463Z,1.95
2023-11-15T01:49:07.980Z,2.13
2023-11-15T01:54:14.362Z,2.03
2023-11-15T01:59:18.266Z,1.85
2023-11-15T02:04:21.757Z,1.80
2023-11-15T02:09:26.828Z,1.80
2023-11-15T02:14:31.981Z,1.70
2023-11-15T02:19:35.618Z,1.90
2023-11-15T02:24:40.417Z,1.70
2023-11-15T02:29:44.027Z,1.90
2023-11-15T02:34:47.611Z,1.88
2023-11-15T02:39:52.400Z,1.63
2023-11-15T02:44:55.829Z,1.55
2023-11-15T02:49:59.311Z,1.60
2023-11-15T02:55:05.176Z,1.58
2023-11-15T03:00:12.038Z,1.60
2023-11-15T03:05:15.539Z,1.60
2023-11-15T03:10:20.462Z,1.55
2023-11-15T03:15:24.136Z,1.88
2023-11-15T03:20:27.848Z,2.08
2023-11-15T03:25:33.190Z,1.60
2023-11-15T03:30:37.178Z,1.50
2023-11-15T03:35:40.748Z,1.70
2023-11-15T03:40:45.631Z,1.60
2023-11-15T03:45:49.148Z,1.63
2023-11-15T03:50:53.092Z,1.40
2023-11-15T03:55:57.979Z,1.73
2023-11-15T04:01:02.535Z,1.50
2023-11-15T04:06:09.040Z,1.50
2023-11-15T04:11:14.056Z,1.48
2023-11-15T04:16:17.544Z,1.70
2023-11-15T04:21:21.084Z,1.40
2023-11-15T04:26:26.629Z,1.60
2023-11-15T04:31:30.198Z,1.40
2023-11-15T04:36:34.866Z,1.40
2023-11-15T04:41:39.753Z,1.50
2023-11-15T04:46:43.280Z,1.30
2023-11-15T04:51:46.748Z,1.55
2023-11-15T04:56:51.899Z,1.40
2023-11-15T05:01:55.536Z,1.40
2023-11-15T05:07:00.560Z,1.40
2023-11-15T05:12:06.989Z,1.40
2023-11-15T05:17:10.700Z,1.48
2023-11-15T05:22:14.162Z,1.40
2023-11-15T05:27:20.298Z,1.40
2023-11-15T05:32:23.754Z,1.42
2023-11-15T05:37:27.359Z,1.50
2023-11-15T05:42:32.197Z,1.35
2023-11-15T05:47:35.731Z,1.23
2023-11-15T05:52:39.731Z,1.83
2023-11-15T05:57:44.502Z,1.23
2023-11-15T06:02:49.679Z,1.23
2023-11-15T06:07:53.242Z,1.65
2023-11-15T06:12:58.053Z,1.27
2023-11-15T06:18:01.648Z,1.40
2023-11-15T06:23:05.689Z,1.42
2023-11-15T06:28:10.481Z,1.30
2023-11-15T06:33:14.161Z,1.45
2023-11-15T06:38:17.709Z,1.60
2023-11-15T06:43:23.053Z,1.30
2023-11-15T06:48:26.573Z,1.17
2023-11-15T06:53:30.111Z,1.20
2023-11-15T06:58:34.940Z,1.33
2023-11-15T07:03:38.878Z,1.25
2023-11-15T07:08:42.701Z,1.35
2023-11-15T07:13:47.624Z,1.45
2023-11-15T07:18:51.192Z,1.52
2023-11-15T07:23:55.924Z,1.40
2023-11-15T07:29:01.709Z,1.60
2023-11-15T07:34:07.022Z,1.60
2023-11-15T07:39:14.927Z,1.90
2023-11-15T07:44:20.252Z,2.03
2023-11-15T07:49:25.041Z,2.20
2023-11-15T07:54:28.791Z,1.77
2023-11-15T07:59:33.761Z,2.75
2023-11-15T08:04:37.284Z,2.20
2023-11-15T08:09:42.318Z,2.50
2023-11-15T08:14:47.443Z,2.08
2023-11-15T08:19:50.882Z,2.08
2023-11-15T08:24:54.321Z,2.10
2023-11-15T08:30:01.121Z,2.00
2023-11-15T08:35:06.748Z,1.80
2023-11-15T08:40:23.022Z,1.80
2023-11-15T08:45:33.469Z,1.92
2023-11-15T08:50:37.190Z,1.92
2023-11-15T08:55:41.944Z,1.92
2023-11-15T09:00:47.677Z,2.10
2023-11-15T09:05:52.306Z,2.05
2023-11-15T09:10:56.442Z,1.88
2023-11-15T09:16:02.929Z,1.42
2023-11-15T09:21:07.435Z,2.17
2023-11-15T09:26:17.707Z,1.60
2023-11-15T09:31:23.530Z,1.80
2023-11-15T09:36:27.618Z,1.70
2023-11-15T09:41:31.380Z,1.73
2023-11-15T09:46:37.192Z,1.90
2023-11-15T09:51:43.285Z,1.52
2023-11-15T09:56:48.078Z,1.90
2023-11-15T10:01:54.304Z,2.10
2023-11-15T10:07:05.383Z,2.22
2023-11-15T10:12:11.730Z,2.20
2023-11-15T10:17:17.081Z,1.88
2023-11-15T10:22:20.527Z,2.05
2023-11-15T10:27:24.027Z,2.40
2023-11-15T10:32:30.321Z,2.25
2023-11-15T10:37:33.804Z,1.80
2023-11-15T10:42:39.097Z,2.00
2023-11-15T10:47:57.516Z,2.30
2023-11-15T10:53:01.618Z,2.40
2023-11-15T10:58:06.422Z,2.28
2023-11-15T11:03:12.819Z,2.13
2023-11-15T11:08:29.890Z,2.40
2023-11-15T11:13:35.172Z,3.03
2023-11-15T11:18:41.258Z,8.43
2023-11-15T11:24:13.263Z,8.75
2023-11-15T11:29:17.067Z,9.35
2023-11-15T11:34:25.987Z,12.15
2023-11-15T11:40:01.390Z,11.13
2023-11-15T11:45:05.991Z,11.07
2023-11-15T11:50:12.960Z,10.50
2023-11-15T11:55:16.989Z,9.83
2023-11-15T12:00:23.054Z,8.32
2023-11-15T12:05:29.229Z,8.05
2023-11-15T12:10:35.286Z,7.20
2023-11-15T12:15:40.010Z,6.93
2023-11-15T12:20:45.661Z,6.22
2023-11-15T12:25:53.335Z,5.60
2023-11-15T12:30:59.080Z,5.07
2023-11-15T12:36:07.861Z,5.15
2023-11-15T12:41:12.364Z,4.10
2023-11-15T12:46:22.537Z,3.92
2023-11-15T12:51:28.532Z,3.65
2023-11-15T12:56:32.225Z,3.15
2023-11-15T13:01:36.255Z,3.28
2023-11-15T13:06:43.112Z,2.80
2023-11-15T13:11:46.856Z,2.72
2023-11-15T13:16:50.424Z,2.67
2023-11-15T13:21:58.206Z,2.15
2023-11-15T13:32:05.823Z,1.90
2023-11-15T13:37:11.010Z,2.20
2023-11-15T13:42:14.592Z,1.90
2023-11-15T13:47:18.549Z,2.00
2023-11-15T13:52:23.465Z,2.05
2023-11-15T13:57:26.978Z,1.95
2023-11-15T14:02:30.509Z,1.92
2023-11-15T14:07:35.515Z,1.90
2023-11-15T14:12:40.762Z,1.90
2023-11-15T14:17:44.330Z,1.98
2023-11-15T14:22:49.525Z,1.40
2023-11-15T14:27:57.321Z,1.50
2023-11-15T14:33:02.305Z,1.50
2023-11-15T14:38:09.588Z,1.58
2023-11-15T14:43:15.746Z,1.52
2023-11-15T14:48:19.383Z,1.58
2023-11-15T14:53:37.669Z,1.35
2023-11-15T14:58:41.198Z,1.50
2023-11-15T15:03:44.853Z,1.60
2023-11-15T15:08:49.833Z,1.40
2023-11-15T15:13:53.780Z,1.30
2023-11-15T15:18:57.454Z,1.23
2023-11-15T15:24:02.341Z,1.48
2023-11-15T15:29:12.253Z,1.30
2023-11-15T15:34:18.753Z,1.30
2023-11-15T15:39:23.684Z,1.15
2023-11-15T15:44:27.645Z,1.40
2023-11-15T15:49:31.174Z,1.40
2023-11-15T15:54:36.333Z,1.00
2023-11-15T15:59:40.422Z,1.05
2023-11-15T16:04:44.445Z,1.42
2023-11-15T16:09:49.390Z,1.30
2023-11-15T16:14:52.946Z,1.30
2023-11-15T16:19:58.449Z,1.35
2023-11-15T16:25:03.626Z,1.30
2023-11-15T16:30:14.682Z,1.60
2023-11-15T16:35:18.924Z,1.20
2023-11-15T16:40:24.607Z,1.50
2023-11-15T16:45:28.923Z,2.50
2023-11-15T16:50:32.993Z,3.92
2023-11-15T16:55:39.430Z,3.95
2023-11-15T17:00:42.957Z,3.55
2023-11-15T17:05:46.650Z,3.30
2023-11-15T17:10:51.450Z,3.22
2023-11-15T17:15:54.904Z,3.25
2023-11-15T17:21:00.739Z,3.28
2023-11-15T17:26:06.936Z,3.53
2023-11-15T17:31:10.644Z,2.97
2023-11-15T17:36:14.058Z,2.80
2023-11-15T17:41:20.856Z,2.97
2023-11-15T17:46:26.538Z,3.22
2023-11-15T17:51:30.197Z,3.10
2023-11-15T17:56:35.263Z,3.17
2023-11-15T18:01:39.843Z,2.88
2023-11-15T18:06:44.201Z,3.08
2023-11-15T18:11:49.158Z,2.80
2023-11-15T18:16:53.959Z,2.65
2023-11-15T18:21:57.522Z,2.70
2023-11-15T18:27:02.466Z,2.53
2023-11-15T18:32:07.756Z,2.38
2023-11-15T18:37:11.226Z,2.80
2023-11-15T18:42:16.118Z,2.42
2023-11-15T18:47:19.616Z,2.10
2023-11-15T18:52:23.073Z,2.33
2023-11-15T18:57:28.582Z,2.20
2023-11-15T19:02:32.115Z,2.20
2023-11-15T19:07:35.631Z,2.17
2023-11-15T19:12:41.895Z,2.20
2023-11-15T19:17:51.143Z,2.50
2023-11-15T19:22:55.911Z,2.45
2023-11-15T19:28:01.494Z,2.10
2023-11-15T19:33:07.182Z,2.13
2023-11-15T19:38:13.578Z,2.53
2023-11-15T19:43:18.443Z,2.15
2023-11-15T19:48:21.998Z,1.95
2023-11-15T19:53:27.086Z,2.40
2023-11-15T19:58:33.072Z,1.70
2023-11-15T20:03:36.628Z,2.20
2023-11-15T20:08:40.912Z,1.85
2023-11-15T20:13:45.984Z,1.98
2023-11-15T20:18:49.523Z,1.67
2023-11-15T20:23:53.903Z,1.70
2023-11-15T20:28:58.952Z,1.90
2023-11-15T20:34:06.512Z,1.75
2023-11-15T20:39:21.813Z,1.75
2023-11-15T20:44:29.972Z,1.90
2023-11-15T20:49:33.443Z,2.17
2023-11-15T20:54:36.952Z,1.90
2023-11-15T20:59:41.845Z,1.88
2023-11-15T21:04:45.368Z,1.58
2023-11-15T21:09:48.924Z,1.50
2023-11-15T21:14:53.848Z,1.95
2023-11-15T21:19:57.297Z,1.63
2023-11-15T21:25:00.749Z,1.60
2023-11-15T21:30:10.915Z,1.70
2023-11-15T21:35:15.484Z,1.63
2023-11-15T21:40:20.195Z,1.70
2023-11-15T21:45:25.878Z,1.70
2023-11-15T21:50:29.651Z,1.58
2023-11-15T21:55:33.303Z,1.70
2023-11-15T22:00:38.890Z,1.30
2023-11-15T22:05:42.379Z,1.30
2023-11-15T22:10:45.867Z,1.30
2023-11-15T22:15:50.939Z,1.40
2023-11-15T22:20:55.356Z,1.52
2023-11-15T22:25:58.994Z,1.40
2023-11-15T22:31:04.843Z,1.70
2023-11-15T22:36:10.826Z,2.10
2023-11-15T22:41:14.627Z,2.10
2023-11-15T22:46:19.525Z,2.35
2023-11-15T22:51:23.247Z,2.08
2023-11-15T22:56:26.986Z,2.10
2023-11-15T23:01:32.273Z,2.05
2023-11-15T23:06:36.245Z,2.00
2023-11-15T23:11:39.929Z,1.90
2023-11-15T23:16:45.593Z,2.25
2023-11-15T23:21:58.852Z,2.00
2023-11-15T23:27:07.199Z,1.70
2023-11-15T23:32:12.337Z,1.83
2023-11-15T23:37:16.602Z,1.98
2023-11-15T23:42:21.356Z,1.85
2023-11-15T23:47:26.292Z,1.63
2023-11-15T23:52:29.974Z,1.80
2023-11-15T23:57:34.106Z,1.75
